Time;durP1;ratioP1;P1;durP2;ratioP2;P2;SDS_P1;SDS_P2;PMS_P1;PMS_P2;Temp;Humidity;BMP_temperature;BMP_pressure;BME280_temperature;BME280_humidity;BME280_pressure;Samples;Min_cycle;Max_cycle;Signal;HPM_P1;HPM_P2
2022/09/27 00:02:09;;;;;;;4.75;3.80;;;25.10;53.50;;;;;;5032612;28;20136;-69
2022/09/27 00:04:35;;;;;;;6.07;3.90;;;25.10;53.50;;;;;;5032975;28;20044;-68
2022/09/27 00:07:01;;;;;;;6.28;4.22;;;25.20;53.50;;;;;;5033189;28;20554;-69
2022/09/27 00:09:27;;;;;;;8.20;4.35;;;25.10;53.50;;;;;;5013932;28;20128;-69
2022/09/27 00:11:53;;;;;;;6.40;4.53;;;25.10;53.60;;;;;;5033592;28;20034;-69
2022/09/27 00:14:20;;;;;;;8.10;4.15;;;25.10;53.70;;;;;;5020983;28;20049;-69
2022/09/27 00:16:46;;;;;;;8.07;4.57;;;25.00;53.60;;;;;;5035211;28;20652;-69
2022/09/27 00:19:18;;;;;;;8.50;4.10;;;25.00;53.60;;;;;;5036720;28;20053;-69
2022/09/27 00:21:45;;;;;;;10.75;4.38;;;25.00;53.60;;;;;;5032475;28;20073;-69
2022/09/27 00:24:20;;;;;;;12.25;4.72;;;25.10;53.60;;;;;;5033172;28;20068;-68
2022/09/27 00:26:47;;;;;;;12.35;5.30;;;25.00;53.60;;;;;;5033085;28;20043;-68
2022/09/27 00:29:15;;;;;;;6.25;5.35;;;25.00;53.60;;;;;;5040225;28;20036;-69
2022/09/27 00:31:41;;;;;;;8.70;5.30;;;25.10;53.70;;;;;;5016862;28;20081;-69
2022/09/27 00:34:20;;;;;;;5.20;4.35;;;25.00;53.70;;;;;;5029719;28;20510;-69
2022/09/27 00:36:47;;;;;;;6.95;4.40;;;25.00;53.70;;;;;;5031338;28;20482;-69
2022/09/27 00:39:14;;;;;;;5.95;4.20;;;25.00;53.70;;;;;;5038457;28;20038;-69
2022/09/27 00:41:41;;;;;;;5.40;3.97;;;24.90;53.90;;;;;;5048729;28;20036;-69
2022/09/27 00:44:28;;;;;;;7.20;4.03;;;25.00;54.00;;;;;;5037551;28;20033;-69
2022/09/27 00:47:12;;;;;;;8.38;3.90;;;24.90;54.00;;;;;;5033648;28;20099;-69
2022/09/27 00:49:47;;;;;;;14.98;3.88;;;25.00;54.00;;;;;;5035632;28;20037;-69
2022/09/27 00:52:21;;;;;;;4.78;3.78;;;24.90;54.00;;;;;;5032300;28;20045;-69
2022/09/27 00:54:56;;;;;;;4.28;3.67;;;25.00;54.10;;;;;;5031850;28;20036;-70
2022/09/27 00:57:23;;;;;;;4.90;3.40;;;25.00;54.20;;;;;;5031482;28;20033;-68
2022/09/27 01:00:01;;;;;;;5.18;3.30;;;24.90;54.20;;;;;;5037194;28;20029;-69
2022/09/27 01:02:28;;;;;;;4.05;3.38;;;25.00;54.20;;;;;;5029879;28;20053;-69
2022/09/27 01:04:55;;;;;;;8.15;3.45;;;25.00;54.20;;;;;;5029679;28;20037;-69
2022/09/27 01:07:21;;;;;;;4.50;3.58;;;25.00;54.10;;;;;;4989242;28;20043;-69
2022/09/27 01:09:49;;;;;;;5.63;3.78;;;25.00;54.20;;;;;;4972296;28;20148;-69
2022/09/27 01:12:34;;;;;;;4.03;3.10;;;24.90;54.20;;;;;;4973106;28;20454;-70
2022/09/27 01:15:09;;;;;;;8.65;3.50;;;25.00;54.20;;;;;;4988386;28;20076;-69
2022/09/27 01:17:50;;;;;;;8.98;3.72;;;24.80;54.10;;;;;;4972817;28;20035;-69
2022/09/27 01:20:51;;;;;;;3.42;3.13;;;24.90;54.20;;;;;;4977411;28;20068;-69
2022/09/27 01:23:36;;;;;;;3.50;3.00;;;24.90;54.20;;;;;;4987771;28;20056;-69
2022/09/27 01:26:17;;;;;;;4.45;2.88;;;24.90;54.20;;;;;;4973569;28;20049;-69
2022/09/27 01:28:58;;;;;;;3.83;3.10;;;24.80;54.20;;;;;;4989933;28;20491;-69
2022/09/27 01:31:52;;;;;;;6.57;3.40;;;24.90;54.40;;;;;;4967660;28;20169;-69
2022/09/27 01:34:42;;;;;;;4.57;2.95;;;24.90;54.40;;;;;;4934782;28;20139;-68
2022/09/27 01:37:14;;;;;;;3.13;2.80;;;24.80;54.30;;;;;;4934629;28;20210;-69
2022/09/27 01:39:49;;;;;;;4.25;3.40;;;24.80;54.50;;;;;;4955193;28;20073;-69
2022/09/27 01:42:33;;;;;;;4.00;3.05;;;24.90;54.60;;;;;;4971224;28;20163;-69
2022/09/27 01:45:12;;;;;;;4.93;3.00;;;24.80;54.60;;;;;;4959272;28;20065;-69
2022/09/27 01:48:08;;;;;;;3.83;3.00;;;24.80;54.70;;;;;;4951499;29;20121;-69
2022/09/27 01:51:03;;;;;;;4.57;2.65;;;24.80;54.70;;;;;;4940402;29;20075;-69
2022/09/27 01:53:43;;;;;;;3.60;2.90;;;24.90;54.80;;;;;;4932687;29;20138;-69
2022/09/27 01:56:40;;;;;;;5.03;2.85;;;24.80;54.70;;;;;;4915210;29;20564;-69
2022/09/27 01:59:19;;;;;;;5.13;2.65;;;24.80;54.80;;;;;;4932291;29;20080;-69
2022/09/27 02:01:58;;;;;;;8.70;2.90;;;24.80;54.80;;;;;;4943579;29;20047;-69
2022/09/27 02:04:32;;;;;;;3.67;2.58;;;24.80;54.90;;;;;;4934921;29;20054;-69
2022/09/27 02:07:22;;;;;;;3.35;3.00;;;24.70;55.10;;;;;;4961441;28;20039;-69
2022/09/27 02:10:15;;;;;;;3.42;2.88;;;24.70;55.00;;;;;;4971658;28;20042;-69
2022/09/27 02:12:56;;;;;;;3.70;2.70;;;24.70;55.00;;;;;;4974846;28;20129;-69
2022/09/27 02:15:25;;;;;;;3.70;2.85;;;24.60;54.90;;;;;;4966816;28;20708;-69
2022/09/27 02:18:17;;;;;;;3.25;2.65;;;24.70;55.00;;;;;;4973003;28;20042;-69
2022/09/27 02:20:50;;;;;;;4.90;3.20;;;24.80;55.10;;;;;;4964771;28;20031;-69
2022/09/27 02:23:39;;;;;;;6.15;2.88;;;24.60;55.10;;;;;;4970648;28;20088;-69
2022/09/27 02:26:21;;;;;;;5.45;2.92;;;24.60;55.10;;;;;;5017061;28;20045;-69
2022/09/27 02:29:06;;;;;;;7.28;3.92;;;24.60;55.20;;;;;;5023791;28;20056;-69
2022/09/27 02:31:41;;;;;;;7.13;4.30;;;24.60;55.20;;;;;;5025380;28;20116;-69
2022/09/27 02:34:18;;;;;;;6.32;3.83;;;24.70;55.30;;;;;;5014037;28;20029;-69
2022/09/27 02:36:44;;;;;;;4.78;3.58;;;24.80;55.30;;;;;;5028196;28;20112;-70
2022/09/27 02:39:10;;;;;;;3.80;2.63;;;24.70;55.30;;;;;;5031885;28;20048;-69
2022/09/27 02:41:37;;;;;;;2.53;2.28;;;24.60;55.30;;;;;;5030909;28;20025;-68
2022/09/27 02:44:07;;;;;;;4.38;2.40;;;24.80;55.40;;;;;;5025606;28;20044;-69
2022/09/27 02:46:58;;;;;;;3.78;2.35;;;24.60;55.30;;;;;;5029847;28;20044;-69
2022/09/27 02:49:46;;;;;;;2.28;2.00;;;24.60;55.30;;;;;;5045342;28;20108;-69
2022/09/27 02:52:41;;;;;;;2.42;2.20;;;24.60;55.50;;;;;;4987672;28;20062;-69
2022/09/27 02:55:26;;;;;;;3.47;2.40;;;24.50;55.50;;;;;;4973347;28;20073;-69
2022/09/27 02:58:25;;;;;;;2.45;2.10;;;24.50;55.50;;;;;;4937674;28;20170;-69
2022/09/27 03:01:26;;;;;;;4.40;2.05;;;24.60;55.50;;;;;;4922270;29;20054;-69
2022/09/27 03:04:16;;;;;;;3.00;2.38;;;24.50;55.50;;;;;;4915484;29;20059;-69
2022/09/27 03:06:45;;;;;;;2.47;2.10;;;24.50;55.60;;;;;;4925399;29;20041;-70
2022/09/27 03:09:37;;;;;;;3.03;2.33;;;24.40;55.60;;;;;;4896334;29;20040;-70
2022/09/27 03:12:04;;;;;;;4.30;2.58;;;24.60;55.80;;;;;;4902320;29;20047;-69
2022/09/27 03:14:30;;;;;;;3.60;2.75;;;24.50;55.80;;;;;;4914259;29;20106;-69
2022/09/27 03:17:07;;;;;;;2.97;2.40;;;24.50;55.80;;;;;;4913461;29;20051;-69
2022/09/27 03:20:03;;;;;;;6.15;3.35;;;24.50;55.80;;;;;;4914320;29;20052;-69
2022/09/27 03:22:44;;;;;;;2.70;2.40;;;24.50;55.80;;;;;;4899772;29;20166;-69
2022/09/27 03:25:10;;;;;;;3.00;2.60;;;24.50;55.90;;;;;;4899136;29;20047;-69
2022/09/27 03:27:36;;;;;;;4.80;3.05;;;24.50;55.80;;;;;;4914495;29;20127;-69
2022/09/27 03:30:05;;;;;;;3.45;2.30;;;24.60;55.80;;;;;;4953510;28;20070;-69
2022/09/27 03:32:31;;;;;;;4.47;1.85;;;24.50;55.80;;;;;;4969911;28;20097;-69
2022/09/27 03:35:23;;;;;;;1.63;1.52;;;24.60;55.70;;;;;;4916492;29;20530;-69
2022/09/27 03:37:49;;;;;;;1.52;1.42;;;24.60;55.60;;;;;;4893855;29;20048;-69
2022/09/27 03:40:15;;;;;;;2.33;1.67;;;24.50;55.50;;;;;;4895275;29;20601;-69
2022/09/27 03:42:41;;;;;;;3.03;1.90;;;24.70;55.50;;;;;;4896959;29;20139;-69
2022/09/27 03:45:08;;;;;;;3.10;1.70;;;24.60;55.30;;;;;;4895870;29;20715;-67
2022/09/27 03:47:38;;;;;;;4.00;2.03;;;24.50;55.30;;;;;;4895417;29;20044;-69
2022/09/27 03:50:05;;;;;;;6.72;2.42;;;24.50;55.60;;;;;;4896766;29;20037;-70
2022/09/27 03:52:31;;;;;;;3.10;2.17;;;24.40;55.70;;;;;;4861525;29;20049;-69
2022/09/27 03:54:57;;;;;;;3.13;2.08;;;24.40;55.90;;;;;;4880522;29;20051;-69
2022/09/27 03:57:23;;;;;;;3.95;2.03;;;24.20;56.00;;;;;;4929962;29;20051;-69
2022/09/27 03:59:50;;;;;;;3.45;1.80;;;24.40;56.30;;;;;;4952725;29;20040;-69
2022/09/27 04:02:42;;;;;;;;;;;24.20;56.40;;;;;;4938075;29;20070;-69
2022/09/27 04:05:29;;;;;;;3.25;2.63;;;24.20;56.40;;;;;;4895742;29;19916;-69
2022/09/27 04:08:01;;;;;;;;;;;24.30;56.50;;;;;;4881025;29;20056;-69
2022/09/27 04:10:30;;;;;;;3.22;2.25;;;24.20;56.20;;;;;;4892987;29;19953;-69
2022/09/27 04:12:56;;;;;;;3.00;2.25;;;24.40;56.10;;;;;;4948880;28;20130;-69
2022/09/27 04:15:25;;;;;;;3.53;2.03;;;24.30;55.90;;;;;;4944699;28;20056;-69
2022/09/27 04:17:51;;;;;;;2.15;1.85;;;24.50;55.90;;;;;;4951684;29;20096;-69
2022/09/27 04:20:29;;;;;;;2.20;1.85;;;24.50;55.80;;;;;;4955116;28;20508;-69
2022/09/27 04:22:57;;;;;;;2.25;1.90;;;24.50;55.70;;;;;;4933040;29;20111;-69
2022/09/27 04:25:23;;;;;;;2.65;2.30;;;24.50;55.70;;;;;;4926722;29;20035;-69
2022/09/27 04:27:54;;;;;;;2.80;2.50;;;24.40;55.60;;;;;;4901805;29;20194;-69
2022/09/27 04:30:22;;;;;;;3.75;2.65;;;24.50;55.80;;;;;;4933346;28;20035;-69
2022/09/27 04:33:06;;;;;;;7.18;3.33;;;24.50;55.90;;;;;;4953207;29;20434;-69
2022/09/27 04:38:39;;;;;;;3.40;2.53;;;24.40;55.90;;;;;;4937138;29;20647;-69
2022/09/27 04:41:06;;;;;;;3.20;2.65;;;24.40;56.00;;;;;;4963173;28;20455;-69
2022/09/27 04:43:35;;;;;;;3.15;2.60;;;24.30;56.10;;;;;;5011607;28;20078;-69
2022/09/27 04:46:03;;;;;;;4.70;2.65;;;24.30;56.20;;;;;;5047125;28;20043;-69
2022/09/27 04:48:29;;;;;;;3.78;2.83;;;24.20;56.30;;;;;;5043128;28;20049;-69
2022/09/27 04:50:57;;;;;;;4.22;3.42;;;24.20;56.30;;;;;;5040557;28;20044;-69
2022/09/27 04:53:23;;;;;;;5.35;3.50;;;24.20;56.40;;;;;;4986177;28;20035;-69
2022/09/27 04:55:53;;;;;;;4.57;2.78;;;24.20;56.40;;;;;;4956921;28;20129;-69
2022/09/27 04:58:20;;;;;;;3.13;2.50;;;24.30;56.50;;;;;;4990322;28;20182;-69
2022/09/27 05:00:47;;;;;;;4.78;2.80;;;24.30;56.40;;;;;;4979997;28;20057;-70
2022/09/27 05:03:39;;;;;;;4.32;3.60;;;24.20;56.40;;;;;;4970543;28;20039;-69
2022/09/27 05:06:13;;;;;;;4.28;3.20;;;24.30;56.50;;;;;;4954995;28;20026;-69
2022/09/27 05:08:39;;;;;;;4.18;2.70;;;24.30;56.60;;;;;;4977348;28;20051;-69
2022/09/27 05:11:17;;;;;;;3.58;3.00;;;24.30;56.60;;;;;;5004893;28;20037;-69
2022/09/27 05:14:04;;;;;;;4.68;2.95;;;24.30;56.50;;;;;;4989951;28;20132;-68
2022/09/27 05:16:36;;;;;;;3.92;1.42;;;24.20;56.40;;;;;;4989159;28;20033;-68
2022/09/27 05:19:20;;;;;;;2.88;1.20;;;24.40;54.40;;;;;;5006411;28;20639;-66
2022/09/27 05:22:07;;;;;;;3.15;1.63;;;24.40;53.70;;;;;;4948744;28;20035;-69
2022/09/27 05:24:34;;;;;;;1.73;1.30;;;24.40;53.80;;;;;;4965821;28;20054;-66
2022/09/27 05:27:01;;;;;;;2.30;1.45;;;24.40;54.70;;;;;;4973326;28;20427;-66
2022/09/27 05:29:47;;;;;;;1.75;1.60;;;24.40;54.80;;;;;;4980098;28;20034;-68
2022/09/27 05:32:18;;;;;;;3.35;2.17;;;24.50;57.10;;;;;;4913242;29;20040;-68
2022/09/27 05:34:52;;;;;;;3.15;2.33;;;24.50;55.60;;;;;;4909074;29;20413;-68
2022/09/27 05:37:19;;;;;;;2.42;2.22;;;24.60;54.30;;;;;;4909297;29;20043;-68
2022/09/27 05:39:45;;;;;;;3.90;2.30;;;24.60;54.70;;;;;;4900904;29;20138;-68
2022/09/27 05:42:14;;;;;;;3.05;2.75;;;24.60;54.90;;;;;;4896639;29;20040;-68
2022/09/27 05:44:41;;;;;;;4.28;2.85;;;24.60;57.30;;;;;;4905947;29;20059;-67
2022/09/27 05:47:07;;;;;;;4.38;2.78;;;24.60;59.50;;;;;;4893884;29;20044;-70
2022/09/27 05:49:34;;;;;;;2.05;1.90;;;24.60;58.10;;;;;;4894595;29;20032;-70
2022/09/27 05:52:02;;;;;;;3.00;2.40;;;24.80;58.10;;;;;;4911863;29;20458;-69
2022/09/27 05:54:28;;;;;;;3.88;2.63;;;24.80;59.20;;;;;;4913370;29;20052;-70
2022/09/27 05:56:58;;;;;;;2.60;2.40;;;24.70;58.80;;;;;;4912338;29;20095;-70
2022/09/27 05:59:44;;;;;;;4.82;2.33;;;24.70;58.50;;;;;;4942260;28;20085;-70
2022/09/27 06:02:19;;;;;;;2.80;2.50;;;24.70;58.40;;;;;;4980031;28;20891;-70
2022/09/27 06:05:04;;;;;;;2.80;2.58;;;24.70;58.40;;;;;;4970485;28;20057;-70
2022/09/27 06:07:40;;;;;;;4.28;2.90;;;24.80;58.40;;;;;;4970544;28;20045;-70
2022/09/27 06:10:12;;;;;;;2.75;2.45;;;24.80;58.30;;;;;;4980491;28;20152;-69
2022/09/27 06:12:38;;;;;;;3.88;2.78;;;24.80;58.20;;;;;;5045155;28;20111;-70
2022/09/27 06:15:13;;;;;;;3.47;2.78;;;24.80;58.30;;;;;;5008510;28;20037;-72
2022/09/27 06:17:42;;;;;;;7.50;3.05;;;24.90;58.40;;;;;;5027447;28;20083;-70
2022/09/27 06:20:15;;;;;;;3.00;2.72;;;24.90;58.40;;;;;;5019982;28;20064;-69
2022/09/27 06:22:42;;;;;;;2.88;1.65;;;24.80;58.50;;;;;;5010185;28;20040;-70
2022/09/27 06:25:09;;;;;;;1.50;1.40;;;24.90;58.20;;;;;;5011555;28;20071;-69
2022/09/27 06:27:49;;;;;;;4.93;1.23;;;25.00;56.80;;;;;;5027631;28;20037;-69
2022/09/27 06:30:22;;;;;;;5.88;1.60;;;25.10;54.80;;;;;;5024893;28;20035;-67
2022/09/27 06:33:16;;;;;;;2.63;1.60;;;25.40;54.20;;;;;;5014789;28;20041;-68
2022/09/27 06:35:49;;;;;;;4.00;2.10;;;25.40;53.00;;;;;;4952295;28;20389;-69
2022/09/27 06:38:18;;;;;;;2.75;2.50;;;25.50;56.40;;;;;;4981711;28;20046;-68
2022/09/27 06:40:57;;;;;;;1.92;1.73;;;25.60;56.70;;;;;;4963358;28;20134;-68
2022/09/27 06:43:40;;;;;;;2.20;1.30;;;25.50;57.00;;;;;;4963781;28;20092;-72
2022/09/27 06:46:38;;;;;;;1.50;1.20;;;25.40;57.30;;;;;;4963868;28;20042;-76
2022/09/27 06:49:10;;;;;;;1.35;1.10;;;25.50;57.20;;;;;;4978549;28;20042;-74
2022/09/27 06:51:39;;;;;;;4.53;1.10;;;25.40;57.40;;;;;;4964492;28;20059;-70
2022/09/27 06:54:05;;;;;;;2.15;1.85;;;25.40;57.50;;;;;;4964746;28;20038;-70
2022/09/27 06:56:31;;;;;;;2.28;1.70;;;25.40;57.80;;;;;;4961280;28;20034;-72
2022/09/27 07:01:43;;;;;;;2.20;1.85;;;25.50;57.40;;;;;;4985837;28;20053;-69
2022/09/27 07:04:25;;;;;;;3.10;2.42;;;25.50;57.10;;;;;;4906825;29;20155;-71
2022/09/27 07:07:05;;;;;;;3.97;2.65;;;25.40;57.10;;;;;;4981007;28;20121;-70
2022/09/27 07:09:39;;;;;;;4.45;3.25;;;25.60;57.20;;;;;;4992855;28;20034;-69
2022/09/27 07:12:05;;;;;;;2.45;2.13;;;25.60;57.10;;;;;;4993620;28;20283;-69
2022/09/27 07:14:33;;;;;;;3.97;2.50;;;25.50;56.60;;;;;;4993985;28;20030;-69
2022/09/27 07:17:00;;;;;;;2.83;2.28;;;25.60;56.60;;;;;;4992945;28;20033;-70
2022/09/27 07:19:31;;;;;;;2.75;1.77;;;25.60;56.20;;;;;;4990468;28;20101;-70
2022/09/27 07:21:58;;;;;;;2.63;1.90;;;25.50;56.60;;;;;;4958245;28;20456;-70
2022/09/27 07:24:24;;;;;;;5.90;2.72;;;25.50;56.60;;;;;;4988907;28;20461;-70
2022/09/27 07:26:50;;;;;;;2.40;2.20;;;25.60;56.50;;;;;;4993557;28;20061;-70
2022/09/27 07:29:19;;;;;;;3.83;2.10;;;25.60;56.30;;;;;;4977419;28;20123;-69
2022/09/27 07:31:47;;;;;;;3.03;2.20;;;25.60;56.70;;;;;;4993463;28;20026;-69
2022/09/27 07:34:13;;;;;;;2.10;1.67;;;25.60;56.60;;;;;;4993005;28;20038;-70
2022/09/27 07:36:39;;;;;;;4.80;2.15;;;25.60;56.70;;;;;;4981301;28;20112;-72
2022/09/27 07:39:05;;;;;;;4.68;2.67;;;25.60;56.60;;;;;;5009544;28;20088;-70
2022/09/27 07:41:33;;;;;;;3.30;1.83;;;25.60;56.50;;;;;;4989699;28;20025;-69
2022/09/27 07:43:59;;;;;;;1.92;1.73;;;25.60;56.60;;;;;;5009626;28;20137;-69
2022/09/27 07:46:25;;;;;;;8.38;2.25;;;25.60;56.70;;;;;;4964994;28;20601;-70
2022/09/27 07:48:54;;;;;;;6.07;2.45;;;25.60;56.70;;;;;;4969582;28;20039;-68
2022/09/27 07:51:38;;;;;;;2.10;1.92;;;25.60;57.10;;;;;;4970335;28;20065;-67
2022/09/27 07:54:23;;;;;;;1.98;1.83;;;25.70;57.00;;;;;;4963447;28;20074;-69
2022/09/27 07:57:06;;;;;;;2.88;2.17;;;25.60;56.90;;;;;;4963811;28;20043;-70
2022/09/27 07:59:41;;;;;;;7.38;3.17;;;25.60;56.80;;;;;;4952076;28;20039;-70
2022/09/27 08:02:14;;;;;;;3.75;2.13;;;25.60;56.40;;;;;;4971177;28;20134;-69
2022/09/27 08:04:42;;;;;;;3.22;1.63;;;25.60;56.30;;;;;;4990624;28;20502;-70
2022/09/27 08:07:09;;;;;;;6.55;3.10;;;25.60;56.50;;;;;;4995381;28;20803;-70
2022/09/27 08:09:36;;;;;;;2.92;2.05;;;25.60;55.70;;;;;;5027301;28;20041;-70
2022/09/27 08:12:03;;;;;;;2.38;1.83;;;25.60;56.40;;;;;;5001636;28;20116;-70
2022/09/27 08:14:30;;;;;;;2.53;2.22;;;25.60;56.40;;;;;;4994733;28;20049;-70
2022/09/27 08:16:56;;;;;;;6.35;1.90;;;25.60;56.30;;;;;;5007977;28;20038;-70
2022/09/27 08:19:29;;;;;;;2.30;2.10;;;25.60;56.30;;;;;;4987463;28;20085;-70
2022/09/27 08:22:38;;;;;;;3.05;2.47;;;25.60;56.20;;;;;;4915269;29;20044;-70
2022/09/27 08:25:14;;;;;;;3.72;2.53;;;25.60;55.90;;;;;;4891095;29;20730;-70
2022/09/27 08:28:05;;;;;;;5.10;2.63;;;25.60;56.10;;;;;;4931467;29;20055;-70
2022/09/27 08:30:44;;;;;;;3.35;2.63;;;25.60;56.10;;;;;;4917700;29;20043;-70
2022/09/27 08:33:10;;;;;;;5.40;2.50;;;25.60;56.00;;;;;;4914728;29;20099;-70
2022/09/27 08:35:36;;;;;;;2.88;2.58;;;25.60;56.10;;;;;;4930588;29;20081;-70
2022/09/27 08:38:04;;;;;;;2.78;2.38;;;25.60;56.20;;;;;;4916819;29;20048;-70
2022/09/27 08:40:43;;;;;;;5.50;2.45;;;25.60;56.20;;;;;;4917941;29;20051;-70
2022/09/27 08:43:16;;;;;;;3.42;2.55;;;25.60;56.20;;;;;;4917860;29;20146;-70
2022/09/27 08:45:48;;;;;;;6.70;2.83;;;25.60;56.10;;;;;;4933032;29;20471;-70
2022/09/27 08:48:16;;;;;;;;;;;25.50;56.00;;;;;;4967094;28;20050;-70
2022/09/27 08:50:45;;;;;;;5.25;2.78;;;25.50;55.90;;;;;;4955992;28;20004;-70
2022/09/27 08:53:13;;;;;;;4.45;2.55;;;25.50;55.90;;;;;;4988775;28;20041;-70
2022/09/27 08:55:54;;;;;;;3.90;2.75;;;25.50;55.90;;;;;;5048351;28;20035;-70
2022/09/27 08:58:29;;;;;;;3.10;2.17;;;25.60;55.90;;;;;;5052111;28;20044;-70
2022/09/27 09:00:59;;;;;;;3.97;3.05;;;25.50;56.10;;;;;;5052081;28;20509;-70
2022/09/27 09:03:34;;;;;;;4.28;3.15;;;25.60;55.90;;;;;;5039748;28;20083;-70
2022/09/27 09:06:25;;;;;;;2.90;2.33;;;25.40;55.90;;;;;;5052027;28;20040;-70
2022/09/27 09:08:54;;;;;;;3.10;2.50;;;25.50;55.90;;;;;;5012940;28;20467;-69
2022/09/27 09:14:41;;;;;;;1.95;1.80;;;25.50;55.90;;;;;;5029043;28;20057;-71
2022/09/27 09:17:38;;;;;;;3.42;1.90;;;25.30;55.90;;;;;;5012785;28;20673;-72
2022/09/27 09:20:39;;;;;;;6.88;2.60;;;25.50;55.90;;;;;;5028063;28;20068;-72
2022/09/27 09:23:40;;;;;;;2.92;2.70;;;25.30;55.60;;;;;;5046598;28;20045;-75
2022/09/27 09:26:27;;;;;;;4.45;1.70;;;25.40;55.20;;;;;;5020060;28;20442;-75
2022/09/27 09:29:02;;;;;;;2.38;2.13;;;25.30;55.70;;;;;;5043510;28;20036;-74
2022/09/27 09:32:04;;;;;;;3.55;3.03;;;25.30;55.60;;;;;;5050905;28;20033;-73
2022/09/27 09:34:38;;;;;;;4.75;3.40;;;25.30;55.50;;;;;;5010205;28;20130;-76
2022/09/27 09:37:26;;;;;;;3.53;2.67;;;25.30;55.70;;;;;;5021205;28;20033;-73
2022/09/27 09:40:01;;;;;;;3.53;2.15;;;25.30;55.70;;;;;;5041970;28;20084;-73
2022/09/27 09:42:43;;;;;;;3.25;2.33;;;25.30;55.60;;;;;;5044865;28;20112;-75
2022/09/27 09:45:27;;;;;;;0.70;0.65;;;25.30;55.60;;;;;;5020068;28;20041;-73
2022/09/27 09:48:04;;;;;;;1.15;0.98;;;25.30;55.90;;;;;;5021917;28;20120;-75
2022/09/27 09:50:41;;;;;;;1.40;1.30;;;25.40;56.50;;;;;;5027765;28;20119;-73
2022/09/27 09:53:28;;;;;;;1.35;1.23;;;25.30;56.10;;;;;;5032190;28;20037;-75
2022/09/27 09:56:04;;;;;;;0.98;0.73;;;25.40;56.60;;;;;;5032468;28;20037;-74
2022/09/27 09:58:38;;;;;;;1.60;1.45;;;25.50;57.00;;;;;;5032175;28;20065;-72
2022/09/27 10:01:44;;;;;;;6.10;2.45;;;25.60;59.10;;;;;;5029089;28;20537;-72
2022/09/27 10:04:22;;;;;;;0.60;0.60;;;25.90;58.90;;;;;;4949962;29;20094;-72
2022/09/27 10:06:51;;;;;;;1.70;1.55;;;26.20;60.00;;;;;;4929003;29;20058;-72
2022/09/27 10:09:23;;;;;;;0.93;0.88;;;26.30;59.30;;;;;;4916202;29;20118;-72
2022/09/27 10:12:09;;;;;;;1.70;1.60;;;26.10;58.70;;;;;;4929782;29;20050;-72
2022/09/27 10:14:35;;;;;;;1.38;1.27;;;26.20;56.90;;;;;;4932050;29;20163;-73
2022/09/27 10:17:10;;;;;;;3.53;1.30;;;26.10;56.60;;;;;;4931872;29;20103;-72
2022/09/27 10:19:38;;;;;;;0.47;0.47;;;26.10;56.50;;;;;;4932906;29;20050;-73
2022/09/27 10:22:11;;;;;;;2.00;1.00;;;26.00;56.20;;;;;;4933590;29;20501;-71
2022/09/27 10:24:57;;;;;;;0.75;0.75;;;26.00;60.10;;;;;;4933067;29;20039;-74
2022/09/27 10:27:59;;;;;;;1.05;1.05;;;26.20;63.10;;;;;;4902178;29;20076;-71
2022/09/27 10:30:34;;;;;;;1.33;1.23;;;26.10;60.10;;;;;;4877514;29;20059;-74
2022/09/27 10:33:17;;;;;;;3.55;1.92;;;26.20;57.20;;;;;;4907089;29;20037;-71
2022/09/27 10:35:52;;;;;;;3.08;1.88;;;26.10;53.50;;;;;;4895715;29;20421;-69
2022/09/27 10:38:35;;;;;;;4.45;2.15;;;26.20;52.50;;;;;;4874629;29;20041;-69
2022/09/27 10:41:37;;;;;;;6.82;1.80;;;26.10;54.00;;;;;;4924202;28;20405;-70
2022/09/27 10:44:19;;;;;;;21.73;5.45;;;26.30;53.90;;;;;;4926506;29;20062;-69
2022/09/27 10:46:57;;;;;;;16.48;4.07;;;26.30;55.60;;;;;;4917992;29;20562;-70
2022/09/27 10:49:40;;;;;;;22.98;4.03;;;26.30;56.10;;;;;;4918336;29;20196;-69
2022/09/27 10:52:27;;;;;;;22.73;5.22;;;26.60;54.90;;;;;;4919700;29;20100;-70
2022/09/27 10:54:57;;;;;;;37.03;5.63;;;26.40;55.10;;;;;;4925060;29;20060;-69
2022/09/27 10:57:27;;;;;;;17.75;3.15;;;26.50;55.90;;;;;;4914001;29;22094;-70
2022/09/27 11:00:21;;;;;;;5.07;1.92;;;26.50;52.30;;;;;;4912660;29;20147;-69
2022/09/27 11:02:53;;;;;;;73.53;19.40;;;26.40;52.40;;;;;;4955775;28;20050;-69
2022/09/27 11:05:26;;;;;;;15.00;4.10;;;26.40;53.40;;;;;;4960589;28;20053;-69
2022/09/27 11:07:54;;;;;;;6.55;2.45;;;26.30;51.50;;;;;;4952251;28;20547;-69
2022/09/27 11:10:35;;;;;;;9.65;2.60;;;26.40;51.00;;;;;;4950924;28;20481;-68
2022/09/27 11:13:13;;;;;;;3.75;1.83;;;26.10;50.90;;;;;;4972868;28;20042;-69
2022/09/27 11:15:50;;;;;;;3.33;1.70;;;26.30;50.60;;;;;;4952205;28;20030;-69
2022/09/27 11:18:33;;;;;;;3.97;2.05;;;26.30;49.90;;;;;;4971054;28;20125;-68
2022/09/27 11:21:13;;;;;;;3.88;2.10;;;26.20;50.30;;;;;;4977588;28;20042;-69
2022/09/27 11:23:48;;;;;;;5.78;2.20;;;26.20;49.90;;;;;;4991869;28;20069;-70
2022/09/27 11:26:43;;;;;;;4.13;1.95;;;26.30;50.00;;;;;;5029943;28;20065;-70
2022/09/27 11:29:23;;;;;;;3.25;1.77;;;26.20;49.80;;;;;;5036284;28;20116;-71
2022/09/27 11:32:37;;;;;;;4.82;2.00;;;26.00;50.00;;;;;;5025559;28;20537;-70
2022/09/27 11:35:45;;;;;;;3.15;1.98;;;26.10;50.20;;;;;;5018539;28;20045;-69
2022/09/27 11:38:27;;;;;;;3.28;2.45;;;26.10;50.30;;;;;;5020143;28;20545;-70
2022/09/27 11:41:03;;;;;;;2.47;1.20;;;25.90;50.20;;;;;;5032015;28;20433;-69
2022/09/27 11:44:02;;;;;;;1.75;1.25;;;26.00;50.70;;;;;;5035683;28;20112;-69
2022/09/27 11:46:33;;;;;;;1.50;1.40;;;25.80;49.80;;;;;;5043413;28;20705;-71
2022/09/27 11:49:19;;;;;;;1.23;1.00;;;25.90;53.90;;;;;;5036835;28;20037;-72
2022/09/27 11:52:37;;;;;;;6.82;2.30;;;26.10;59.10;;;;;;5013467;28;20116;-70
2022/09/27 11:55:18;;;;;;;3.28;2.00;;;26.50;53.30;;;;;;4995321;28;20073;-71
2022/09/27 11:57:59;;;;;;;8.52;5.50;;;26.50;52.80;;;;;;4993519;28;20058;-70
2022/09/27 12:01:03;;;;;;;6.35;3.10;;;26.70;56.00;;;;;;4967338;28;20102;-71
2022/09/27 12:04:11;;;;;;;50.90;12.02;;;26.80;52.50;;;;;;4971583;28;20046;-70
2022/09/27 12:06:47;;;;;;;19.88;10.23;;;26.80;52.80;;;;;;4957625;28;20053;-73
2022/09/27 12:09:21;;;;;;;4.32;3.72;;;26.90;55.00;;;;;;4951782;28;20039;-73
2022/09/27 12:11:57;;;;;;;14.73;6.82;;;27.10;54.40;;;;;;4950688;28;20163;-71
2022/09/27 12:14:43;;;;;;;7.10;4.13;;;27.10;50.00;;;;;;4904538;29;20035;-72
2022/09/27 12:17:18;;;;;;;7.72;3.50;;;27.10;53.10;;;;;;4933291;29;20152;-69
2022/09/27 12:19:51;;;;;;;76.70;50.60;;;27.20;52.00;;;;;;4916877;29;20075;-72
2022/09/27 12:22:29;;;;;;;9.93;3.80;;;27.30;52.40;;;;;;4915614;29;20068;-72
2022/09/27 12:24:55;;;;;;;2.83;2.00;;;27.50;55.30;;;;;;4932175;29;20051;-69
2022/09/27 12:27:45;;;;;;;50.22;24.05;;;27.60;54.10;;;;;;4914409;29;20081;-72
2022/09/27 12:30:16;;;;;;;9.43;4.75;;;27.80;56.00;;;;;;4919280;29;20043;-73
2022/09/27 12:32:48;;;;;;;3.75;3.35;;;27.80;54.90;;;;;;4869170;29;20044;-72
2022/09/27 12:35:18;;;;;;;18.20;4.85;;;28.00;53.40;;;;;;4898987;29;20111;-71
2022/09/27 12:38:04;;;;;;;7.18;2.83;;;28.00;53.20;;;;;;4912040;29;20044;-71
2022/09/27 12:40:37;;;;;;;6.53;3.22;;;28.00;53.20;;;;;;4896158;29;20044;-72
2022/09/27 12:43:26;;;;;;;3.58;2.83;;;27.90;50.80;;;;;;4906213;29;20052;-74
2022/09/27 12:46:16;;;;;;;3.25;3.00;;;27.90;50.10;;;;;;4915941;29;20054;-72
2022/09/27 12:48:48;;;;;;;4.13;3.13;;;27.90;50.50;;;;;;4914490;29;20043;-69
2022/09/27 12:51:17;;;;;;;3.60;2.83;;;27.70;50.60;;;;;;4948130;28;20087;-70
2022/09/27 12:54:23;;;;;;;1.90;1.80;;;27.60;50.90;;;;;;4922716;29;20048;-71
2022/09/27 12:57:17;;;;;;;1.98;1.88;;;27.70;50.90;;;;;;4931611;29;20123;-70
2022/09/27 13:00:19;;;;;;;4.43;1.92;;;27.50;51.20;;;;;;4930219;29;20050;-71
2022/09/27 13:02:59;;;;;;;3.70;1.88;;;27.50;51.60;;;;;;4917715;29;20579;-74
2022/09/27 13:05:57;;;;;;;4.10;3.08;;;27.40;51.40;;;;;;4927080;29;20063;-72
2022/09/27 13:08:35;;;;;;;4.75;2.22;;;27.40;51.80;;;;;;4947451;28;20096;-75
2022/09/27 13:11:27;;;;;;;1.63;1.52;;;27.30;51.90;;;;;;4969019;28;20767;-73
2022/09/27 13:13:58;;;;;;;1.60;1.50;;;27.30;51.80;;;;;;4988183;28;20561;-74
2022/09/27 13:16:25;;;;;;;2.47;2.17;;;27.20;51.90;;;;;;4970774;28;20046;-71
2022/09/27 13:19:01;;;;;;;2.35;1.95;;;27.20;51.70;;;;;;4989253;28;20038;-71
2022/09/27 13:21:46;;;;;;;5.03;2.00;;;27.20;52.00;;;;;;4952709;28;20106;-71
2022/09/27 13:24:50;;;;;;;2.95;2.10;;;27.00;52.10;;;;;;4893756;29;20047;-71
2022/09/27 13:27:51;;;;;;;3.08;2.40;;;27.20;52.10;;;;;;4857427;29;20519;-71
2022/09/27 13:30:27;;;;;;;;;;;27.00;52.10;;;;;;4876873;29;20049;-71
2022/09/27 13:33:42;;;;;;;2.88;2.60;;;26.90;51.70;;;;;;4860586;29;20055;-71
2022/09/27 13:36:20;;;;;;;3.22;2.08;;;27.00;52.30;;;;;;4832826;29;20049;-71
2022/09/27 13:39:03;;;;;;;2.28;2.08;;;26.90;51.90;;;;;;4822754;29;20066;-71
2022/09/27 13:41:45;;;;;;;2.28;2.00;;;26.80;52.00;;;;;;4836205;29;20050;-71
2022/09/27 13:44:47;;;;;;;2.03;1.80;;;26.80;52.10;;;;;;4853603;29;20400;-71
2022/09/27 13:47:32;;;;;;;2.20;1.73;;;26.80;52.30;;;;;;4819525;29;20045;-71
2022/09/27 13:50:19;;;;;;;2.10;1.85;;;26.70;52.50;;;;;;4814042;29;20464;-71